Řízení letového provozu České republiky  
Aktualizace dat:  15.10.2019 23:33:27 UTC English version
   METEO Zobrazení stránky:  15.10.2019 23:34:15 UTC  
vysvětlivky
METAR EDDB 152320Z 12004KT 6000 R07R/0500V0900D BCFG NSC 11/11 Q1004 BECMG 1200 BCFG=
METAR EDDC 152320Z 15005KT CAVOK 13/10 Q1005=
METAR EDDE 152320Z 26019KT 9999 -RA FEW014 14/12 Q1006=
METAR EDDF 152320Z 22011KT 9999 FEW038 BKN049 13/10 Q1011 NOSIG=
METAR EDDM 152320Z 25017KT 9999 RA FEW013 BKN020 11/10 Q1013 TEMPO BKN013=
METAR EDDN 152320Z 24006KT 9999 -RA BKN012 13/12 Q1011 RERA=
METAR EDDP 152320Z 22006KT CAVOK 13/12 Q1004 BECMG 24015G25KT=
METAR EDDT 152320Z VRB01KT 9999 R08L/0325V0700U R08R/0450V0900D BCFG NSC 12/12 Q1004=
METAR EDQM NIL
METAR EPBY 152330Z 15008KT CAVOK 14/11 Q1006=
METAR EPGD 152330Z VRB02KT 3500 0150W PRFG BR FEW000 11/11 Q1006=
METAR EPKK 152330Z 06006KT CAVOK 08/08 Q1010=
METAR EPKT 152330Z 12006KT CAVOK 12/06 Q1009=
METAR EPLL 152330Z 08003KT 050V120 9999 MIFG NSC 13/10 Q1009=
METAR EPPO 152330Z 15005KT CAVOK 13/10 Q1005=
METAR EPRZ 152330Z 08006KT CAVOK 13/09 Q1012=
METAR EPWA 152330Z 15005KT CAVOK 11/09 Q1010 NOSIG=
METAR EPWR 152330Z 14006KT CAVOK 14/11 Q1006=
METAR LHBP 152330Z VRB03KT CAVOK 11/11 Q1014 NOSIG=
METAR LHSM 152315Z AUTO 15003KT 100V170 9000 NCD 12/11 Q1013=
METAR LKBC 152330Z AUTO VRB01KT 0100 FG VV001 09/08 Q1009=
METAR LKCV 152300Z 23003KT 190V270 CAVOK 09/08 Q1008 NOSIG RMK BLU BLU=
METAR LKKB 152300Z 19005KT 5000 BR NSC 09/09 Q1007 NOSIG RMK WHT=
METAR LKKU NIL
METAR LKKV 152300Z VRB02KT 7000 OVC007 11/10 Q1008 RMK REG QNH 1005=
METAR LKLN 152330Z AUTO 21005KT 4000 BR OVC013 11/11 Q1009=
METAR LKMT 152330Z 19018KT CAVOK 19/10 Q1009 NOSIG RMK REG QNH 1005=
METAR LKNA 152300Z 11008KT CAVOK 13/12 Q1008 RMK BLU=
METAR LKPD 152300Z VRB02KT 8000 NSC 11/10 Q1007 RMK BLU=
METAR LKPJ 152300Z AUTO 15004KT CAVOK ///// Q////=
METAR LKPR 152330Z 19005KT 5000 BR NSC 08/07 Q1007 BECMG FM0000 3000 BR BKN007 RMK REG QNH 1005=
METAR LKTB 152330Z 11006KT CAVOK 14/12 Q1008 NOSIG RMK REG QNH 1005=
METAR LKVO NIL
METAR LOWI 152320Z AUTO 23004KT 200V260 9999 FEW050 BKN090 13/10 Q1012=
METAR LOWL 152320Z AUTO 25006KT 5000 BR FEW019 BKN020 12/12 Q1011=
METAR LOWS 152320Z AUTO 29017G27KT 9999 -RA FEW011 SCT022 BKN036 12/09 Q1013=
METAR LOWW 152320Z 16011KT CAVOK 15/11 Q1008 NOSIG=
METAR LZIB 152330Z 16004KT 130V200 CAVOK 16/12 Q1010=
METAR LZKZ 152330Z VRB01KT CAVOK 10/09 Q1015=
METAR LZMC NIL
METAR LZPP 152330Z AUTO 14015KT 9999 NCD 17/10 Q1011=
METAR LZSL 152330Z VRB01KT 0800 R36/1700U FG FEW003 09/07 Q1014=
METAR LZTT 152330Z VRB01KT CAVOK 09/07 Q1015=
METAR LZZI 152330Z 20008KT 160V230 CAVOK 18/10 Q1012=